Pagina principale
METAR-TAF:

METAR-TAF

Aeroporti :

Aeroporto di Bergamo-Orio al Serio

Bergamo, Italia

latitudine: 45-40N, longitudine: 009-42E, altezza: 238 m

Osservazione

Il bollettino è stato emesso 41 minuti fa, alle 18:50 UTC
Vento 5 kt da est/sud-est
Temperature 9°C
Umidità 81%
Pressione 1018 hPa
Visibilità: 6000 m

METAR: LIME 241850Z 11005KT 6000 NSC 09/06 Q1018 NOSIG

Ora: 20:31 (19:31 UTC)

Previsione

Il bollettino è stato emesso 2 ore e 31 minuti fa, alle 17:00 UTC
Previsione valida dal 24 alle 18 UTC al 25 alle 18 UTC
Vento 5 kt da direzioni variabili
Visibilità: 5000 m
Nuvoloso ad un'altezza di 3500 ft
foschia

TAF: LIME 241700Z 2418/2518 VRB05KT 5000 BR BKN035

Osservazioni e previsioni meteorologiche di più di 4000 aeroporti (messaggi METAR e TAF).

Le stazioni disponibili sono rappresentate dai dischi gialli e rossi sulla carta.

Puntare il mouse per vedere il nome della stazione.

Clicca sopra per visualizzare le osservazioni e previsioni meteorologiche.

Per cambiare la mappa : fare clic sui pulsanti verdi con una croce nera per ingrandire, il pulsante verde con un trattino per diminuire, o sulla freccia verde per le mappe adiacenti.


METAR-TAF: